createdAt,value
2023-04-20T00:00:18.641Z,1737.00
2023-04-20T00:01:18.626Z,1738.00
2023-04-20T00:02:18.700Z,1727.00
2023-04-20T00:03:18.776Z,1738.00
2023-04-20T00:04:18.624Z,1734.00
2023-04-20T00:05:18.642Z,1733.00
2023-04-20T00:06:18.605Z,1719.00
2023-04-20T00:07:18.669Z,1727.00
2023-04-20T00:08:18.570Z,1712.00
2023-04-20T00:09:18.811Z,1725.00
2023-04-20T00:10:18.606Z,1711.00
2023-04-20T00:11:18.543Z,1713.00
2023-04-20T00:12:18.598Z,1708.00
2023-04-20T00:13:18.538Z,1706.00
2023-04-20T00:14:18.522Z,1710.00
2023-04-20T00:15:18.554Z,1696.00
2023-04-20T00:16:18.534Z,1692.00
2023-04-20T00:17:18.628Z,1692.00
2023-04-20T00:18:18.508Z,1689.00
2023-04-20T00:19:18.630Z,1696.00
2023-04-20T00:20:18.451Z,1693.00
2023-04-20T00:21:18.458Z,1687.00
2023-04-20T00:22:18.471Z,1693.00
2023-04-20T00:23:18.452Z,1690.00
2023-04-20T00:24:18.444Z,1690.00
2023-04-20T00:25:18.458Z,1682.00
2023-04-20T00:26:18.422Z,1691.00
2023-04-20T00:27:18.446Z,1665.00
2023-04-20T00:28:18.401Z,1687.00
2023-04-20T00:29:18.632Z,1683.00
2023-04-20T00:30:18.378Z,1675.00
2023-04-20T00:31:18.436Z,1664.00
2023-04-20T00:32:18.386Z,1695.00
2023-04-20T00:33:18.370Z,1683.00
2023-04-20T00:34:18.367Z,1670.00
2023-04-20T00:35:18.382Z,1659.00
2023-04-20T00:36:18.404Z,1658.00
2023-04-20T00:37:18.415Z,1666.00
2023-04-20T00:38:18.444Z,1652.00
2023-04-20T00:39:18.650Z,1658.00
2023-04-20T00:40:18.447Z,1664.00
2023-04-20T00:41:18.493Z,1651.00
2023-04-20T00:42:18.489Z,1650.00
2023-04-20T00:43:18.519Z,1642.00
2023-04-20T00:44:18.553Z,1653.00
2023-04-20T00:45:18.537Z,1642.00
2023-04-20T00:46:18.636Z,1647.00
2023-04-20T00:47:18.656Z,1639.00
2023-04-20T00:48:18.622Z,1625.00
2023-04-20T00:49:18.952Z,1625.00
2023-04-20T00:50:18.701Z,1630.00
2023-04-20T00:51:18.704Z,1641.00
2023-04-20T00:52:18.694Z,1627.00
2023-04-20T00:53:18.756Z,1623.00
2023-04-20T00:54:18.742Z,1628.00
2023-04-20T00:55:18.738Z,1624.00
2023-04-20T00:56:18.781Z,1613.00
2023-04-20T00:57:18.797Z,1619.00
2023-04-20T00:58:18.846Z,1608.00
2023-04-20T00:59:19.009Z,1615.00
2023-04-20T01:00:18.909Z,1596.00
2023-04-20T01:01:18.928Z,1596.00
2023-04-20T01:02:18.957Z,1607.00
2023-04-20T01:03:19.163Z,1600.00
2023-04-20T01:04:19.130Z,1599.00
2023-04-20T01:05:19.009Z,1608.00
2023-04-20T01:06:19.018Z,1602.00
2023-04-20T01:07:19.087Z,1583.00
2023-04-20T01:08:19.089Z,1591.00
2023-04-20T01:09:19.383Z,1581.00
2023-04-20T01:10:19.143Z,1601.00
2023-04-20T01:11:19.137Z,1572.00
2023-04-20T01:12:19.212Z,1581.00
2023-04-20T01:13:19.181Z,1579.00
2023-04-20T01:14:19.256Z,1587.00
2023-04-20T01:15:19.253Z,1583.00
2023-04-20T01:16:19.310Z,1575.00
2023-04-20T01:17:19.340Z,1580.00
2023-04-20T01:18:19.511Z,1566.00
2023-04-20T01:19:19.491Z,1568.00
2023-04-20T01:20:19.420Z,1569.00
2023-04-20T01:21:19.412Z,1574.00
2023-04-20T01:22:19.486Z,1568.00
2023-04-20T01:23:19.474Z,1562.00
2023-04-20T01:24:19.527Z,1566.00
2023-04-20T01:25:19.556Z,1554.00
2023-04-20T01:26:19.555Z,1542.00
2023-04-20T01:27:19.592Z,1551.00
2023-04-20T01:28:19.637Z,1541.00
2023-04-20T01:29:19.711Z,1543.00
2023-04-20T01:30:19.699Z,1558.00
2023-04-20T01:31:19.701Z,1535.00
2023-04-20T01:32:19.718Z,1542.00
2023-04-20T01:33:19.782Z,1534.00
2023-04-20T01:34:19.795Z,1536.00
2023-04-20T01:35:19.802Z,1530.00
2023-04-20T01:36:19.800Z,1521.00
2023-04-20T01:37:19.833Z,1536.00
2023-04-20T01:38:19.860Z,1529.00
2023-04-20T01:39:20.190Z,1528.00
2023-04-20T01:40:19.921Z,1528.00
2023-04-20T01:41:19.952Z,1530.00
2023-04-20T01:42:19.966Z,1520.00
2023-04-20T01:43:20.008Z,1521.00
2023-04-20T01:44:20.064Z,1526.00
2023-04-20T01:45:20.068Z,1519.00
2023-04-20T01:46:20.107Z,1503.00
2023-04-20T01:47:20.103Z,1517.00
2023-04-20T01:48:20.135Z,1522.00
2023-04-20T01:49:20.168Z,1502.00
2023-04-20T01:50:20.189Z,1510.00
2023-04-20T01:51:20.196Z,1525.00
2023-04-20T01:52:20.209Z,1499.00
2023-04-20T01:53:20.264Z,1511.00
2023-04-20T01:54:20.295Z,1500.00
2023-04-20T01:55:20.397Z,1497.00
2023-04-20T01:56:20.350Z,1504.00
2023-04-20T01:57:20.366Z,1492.00
2023-04-20T01:58:20.401Z,1499.00
2023-04-20T01:59:20.414Z,1498.00
2023-04-20T02:00:20.449Z,1490.00
2023-04-20T02:01:20.540Z,1484.00
2023-04-20T02:02:20.630Z,1491.00
2023-04-20T02:03:20.562Z,1481.00
2023-04-20T02:04:20.602Z,1486.00
2023-04-20T02:05:20.599Z,1479.00
2023-04-20T02:06:20.601Z,1472.00
2023-04-20T02:07:20.631Z,1475.00
2023-04-20T02:08:20.682Z,1467.00
2023-04-20T02:09:20.686Z,1470.00
2023-04-20T02:10:20.695Z,1464.00
2023-04-20T02:11:20.702Z,1473.00
2023-04-20T02:12:20.742Z,1470.00
2023-04-20T02:13:20.782Z,1468.00
2023-04-20T02:14:20.822Z,1478.00
2023-04-20T02:15:20.812Z,1461.00
2023-04-20T02:16:20.863Z,1449.00
2023-04-20T02:17:21.061Z,1469.00
2023-04-20T02:18:20.921Z,1451.00
2023-04-20T02:19:20.967Z,1451.00
2023-04-20T02:20:20.965Z,1461.00
2023-04-20T02:21:21.032Z,1449.00
2023-04-20T02:22:21.020Z,1442.00
2023-04-20T02:23:21.083Z,1465.00
2023-04-20T02:24:21.097Z,1446.00
2023-04-20T02:25:21.109Z,1449.00
2023-04-20T02:26:21.149Z,1440.00
2023-04-20T02:27:21.191Z,1440.00
2023-04-20T02:28:21.217Z,1444.00
2023-04-20T02:29:21.237Z,1436.00
2023-04-20T02:30:21.276Z,1444.00
2023-04-20T02:31:21.393Z,1440.00
2023-04-20T02:32:21.358Z,1432.00
2023-04-20T02:33:21.344Z,1431.00
2023-04-20T02:34:21.437Z,1433.00
2023-04-20T02:35:21.437Z,1413.00
2023-04-20T02:36:21.454Z,1433.00
2023-04-20T02:37:21.474Z,1432.00
2023-04-20T02:38:21.581Z,1427.00
2023-04-20T02:39:21.576Z,1421.00
2023-04-20T02:40:21.630Z,1422.00
2023-04-20T02:41:21.619Z,1420.00
2023-04-20T02:42:21.685Z,1417.00
2023-04-20T02:43:21.693Z,1399.00
2023-04-20T02:44:21.712Z,1427.00
2023-04-20T02:45:21.758Z,1393.00
2023-04-20T02:46:21.831Z,1404.00
2023-04-20T02:47:21.853Z,1404.00
2023-04-20T02:48:21.888Z,1399.00
2023-04-20T02:49:21.906Z,1414.00
2023-04-20T02:50:21.922Z,1391.00
2023-04-20T02:51:21.986Z,1393.00
2023-04-20T02:52:22.053Z,1403.00
2023-04-20T02:53:22.085Z,1396.00
2023-04-20T02:54:22.051Z,1399.00
2023-04-20T02:55:22.103Z,1390.00
2023-04-20T02:56:22.139Z,1397.00
2023-04-20T02:57:22.186Z,1401.00
2023-04-20T02:58:22.265Z,1385.00
2023-04-20T02:59:22.227Z,1384.00
2023-04-20T03:00:22.275Z,1395.00
2023-04-20T03:01:22.343Z,1393.00
2023-04-20T03:02:22.652Z,1374.00
2023-04-20T03:03:22.464Z,1376.00
2023-04-20T03:04:22.452Z,1382.00
2023-04-20T03:05:22.465Z,1366.00
2023-04-20T03:06:22.484Z,1378.00
2023-04-20T03:07:22.511Z,1354.00
2023-04-20T03:08:22.562Z,1376.00
2023-04-20T03:09:22.553Z,1380.00
2023-04-20T03:10:22.608Z,1371.00
2023-04-20T03:11:22.643Z,1366.00
2023-04-20T03:12:22.684Z,1351.00
2023-04-20T03:13:22.751Z,1366.00
2023-04-20T03:14:22.770Z,1343.00
2023-04-20T03:15:22.816Z,1367.00
2023-04-20T03:16:22.896Z,1355.00
2023-04-20T03:17:22.880Z,1339.00
2023-04-20T03:18:22.938Z,1352.00
2023-04-20T03:19:22.989Z,1346.00
2023-04-20T03:20:23.021Z,1349.00
2023-04-20T03:21:23.074Z,1348.00
2023-04-20T03:22:23.096Z,1338.00
2023-04-20T03:23:23.197Z,1347.00
2023-04-20T03:24:23.155Z,1345.00
2023-04-20T03:25:23.220Z,1323.00
2023-04-20T03:26:23.261Z,1324.00
2023-04-20T03:27:23.309Z,1325.00
2023-04-20T03:28:23.354Z,1323.00
2023-04-20T03:29:23.366Z,1319.00
2023-04-20T03:30:23.401Z,1339.00
2023-04-20T03:31:23.498Z,1304.00
2023-04-20T03:32:23.508Z,1309.00
2023-04-20T03:33:23.527Z,1325.00
2023-04-20T03:34:23.562Z,1340.00
2023-04-20T03:35:23.605Z,1309.00
2023-04-20T03:36:23.657Z,1321.00
2023-04-20T03:37:23.692Z,1314.00
2023-04-20T03:38:23.717Z,1314.00
2023-04-20T03:39:23.779Z,1295.00
2023-04-20T03:40:23.785Z,1290.00
2023-04-20T03:41:23.838Z,1298.00
2023-04-20T03:42:23.884Z,1309.00
2023-04-20T03:43:23.929Z,1314.00
2023-04-20T03:44:23.983Z,1284.00
2023-04-20T03:45:24.012Z,1292.00
2023-04-20T03:46:24.113Z,1299.00
2023-04-20T03:47:24.085Z,1284.00
2023-04-20T03:48:24.092Z,1279.00
2023-04-20T03:49:24.161Z,1266.00
2023-04-20T03:50:24.177Z,1274.00
2023-04-20T03:51:24.243Z,1278.00
2023-04-20T03:52:24.299Z,1280.00
2023-04-20T03:53:24.340Z,1271.00
2023-04-20T03:54:24.337Z,1286.00
2023-04-20T03:55:24.524Z,1290.00
2023-04-20T03:56:24.454Z,1273.00
2023-04-20T03:57:24.488Z,1282.00
2023-04-20T03:58:24.543Z,1277.00
2023-04-20T03:59:24.647Z,1274.00
2023-04-20T04:00:24.617Z,1272.00
2023-04-20T04:01:24.641Z,1273.00
2023-04-20T04:02:24.795Z,1263.00
2023-04-20T04:03:24.889Z,1269.00
2023-04-20T04:04:24.968Z,1270.00
2023-04-20T04:05:24.898Z,1265.00
2023-04-20T04:06:24.892Z,1265.00
2023-04-20T04:07:24.899Z,1269.00
2023-04-20T04:08:24.952Z,1263.00
2023-04-20T04:09:24.986Z,1257.00
2023-04-20T04:10:25.012Z,1246.00
2023-04-20T04:11:25.080Z,1246.00
2023-04-20T04:12:25.126Z,1235.00
2023-04-20T04:13:25.154Z,1240.00
2023-04-20T04:14:25.214Z,1242.00
2023-04-20T04:15:25.237Z,1247.00
2023-04-20T04:16:25.295Z,1242.00
2023-04-20T04:17:25.332Z,1236.00
2023-04-20T04:18:25.374Z,1225.00
2023-04-20T04:19:25.393Z,1238.00
2023-04-20T04:20:25.463Z,1237.00
2023-04-20T04:21:25.506Z,1235.00
2023-04-20T04:22:25.539Z,1224.00
2023-04-20T04:23:25.576Z,1234.00
2023-04-20T04:24:25.620Z,1236.00
2023-04-20T04:25:25.691Z,1227.00
2023-04-20T04:26:25.734Z,1233.00
2023-04-20T04:27:25.745Z,1220.00
2023-04-20T04:28:25.830Z,1232.00
2023-04-20T04:29:25.868Z,1222.00
2023-04-20T04:30:25.897Z,1223.00
2023-04-20T04:31:26.010Z,1223.00
2023-04-20T04:32:26.045Z,1231.00
2023-04-20T04:33:26.047Z,1218.00
2023-04-20T04:34:26.082Z,1219.00
2023-04-20T04:35:26.228Z,1211.00
2023-04-20T04:36:26.177Z,1216.00
2023-04-20T04:37:26.214Z,1216.00
2023-04-20T04:38:26.264Z,1206.00
2023-04-20T04:39:26.316Z,1206.00
2023-04-20T04:40:26.359Z,1209.00
2023-04-20T04:41:26.416Z,1209.00
2023-04-20T04:42:26.447Z,1187.00
2023-04-20T04:43:26.507Z,1198.00
2023-04-20T04:44:26.573Z,1198.00
2023-04-20T04:45:26.585Z,1195.00
2023-04-20T04:46:26.670Z,1184.00
2023-04-20T04:47:26.720Z,1183.00
2023-04-20T04:48:26.714Z,1197.00
2023-04-20T04:49:26.832Z,1198.00
2023-04-20T04:50:26.857Z,1181.00
2023-04-20T04:51:26.839Z,1187.00
2023-04-20T04:52:26.909Z,1193.00
2023-04-20T04:53:26.949Z,1186.00
2023-04-20T04:54:26.999Z,1184.00
2023-04-20T04:55:26.990Z,1193.00
2023-04-20T04:56:27.072Z,1188.00
2023-04-20T04:57:27.103Z,1160.00
2023-04-20T04:58:27.146Z,1175.00
2023-04-20T04:59:27.209Z,1184.00
2023-04-20T05:00:27.269Z,1176.00
2023-04-20T05:01:27.290Z,1171.00
2023-04-20T05:02:27.500Z,1179.00
2023-04-20T05:03:27.476Z,1163.00
2023-04-20T05:04:27.499Z,1166.00
2023-04-20T05:05:27.473Z,1176.00
2023-04-20T05:06:27.539Z,1164.00
2023-04-20T05:07:27.533Z,1143.00
2023-04-20T05:08:27.602Z,1147.00
2023-04-20T05:09:27.632Z,1151.00
2023-04-20T05:10:27.703Z,1158.00
2023-04-20T05:11:27.717Z,1142.00
2023-04-20T05:12:27.770Z,1156.00
2023-04-20T05:13:27.792Z,1150.00
2023-04-20T05:14:27.807Z,1145.00
2023-04-20T05:15:27.879Z,1120.00
2023-04-20T05:16:27.928Z,1116.00
2023-04-20T05:17:27.912Z,1128.00
2023-04-20T05:18:27.915Z,1124.00
2023-04-20T05:19:27.935Z,1117.00
2023-04-20T05:20:27.926Z,1116.00
2023-04-20T05:21:27.937Z,1100.00
2023-04-20T05:22:27.926Z,1098.00
2023-04-20T05:23:27.966Z,1084.00
2023-04-20T05:24:27.959Z,1098.00
2023-04-20T05:25:27.962Z,1077.00
2023-04-20T05:26:27.965Z,1080.00
2023-04-20T05:27:27.958Z,1066.00
2023-04-20T05:28:27.959Z,1085.00
2023-04-20T05:29:27.982Z,1068.00
2023-04-20T05:30:27.997Z,1072.00
2023-04-20T05:31:28.083Z,1061.00
2023-04-20T05:32:28.311Z,1069.00
2023-04-20T05:33:28.139Z,1058.00
2023-04-20T05:34:28.227Z,1056.00
2023-04-20T05:35:28.243Z,1063.00
2023-04-20T05:36:28.287Z,1047.00
2023-04-20T05:37:28.377Z,1047.00
2023-04-20T05:38:28.411Z,1047.00
2023-04-20T05:39:28.501Z,1042.00
2023-04-20T05:40:28.546Z,1033.00
2023-04-20T05:41:28.582Z,1031.00
2023-04-20T05:42:28.657Z,1032.00
2023-04-20T05:43:28.731Z,1031.00
2023-04-20T05:44:28.736Z,1018.00
2023-04-20T05:45:28.838Z,1037.00
2023-04-20T05:46:28.861Z,1025.00
2023-04-20T05:47:28.985Z,1015.00
2023-04-20T05:48:30.058Z,1021.00
2023-04-20T05:49:29.018Z,1023.00
2023-04-20T05:50:29.092Z,1020.00
2023-04-20T05:51:29.116Z,1016.00
2023-04-20T05:52:29.133Z,1013.00
2023-04-20T05:53:29.217Z,1009.00
2023-04-20T05:54:29.230Z,995.00
2023-04-20T05:55:29.280Z,1019.00
2023-04-20T05:56:29.330Z,1004.00
2023-04-20T05:57:29.419Z,1009.00
2023-04-20T05:58:29.457Z,1022.00
2023-04-20T05:59:29.479Z,1016.00
2023-04-20T06:00:29.531Z,999.00
2023-04-20T06:01:29.643Z,997.00
2023-04-20T06:02:29.661Z,998.00
2023-04-20T06:03:29.904Z,1003.00
2023-04-20T06:04:30.086Z,1000.00
2023-04-20T06:05:29.756Z,993.00
2023-04-20T06:06:29.784Z,991.00
2023-04-20T06:07:29.826Z,994.00
2023-04-20T06:08:29.865Z,992.00
2023-04-20T06:09:29.873Z,996.00
2023-04-20T06:10:29.938Z,994.00
2023-04-20T06:11:29.954Z,989.00
2023-04-20T06:12:30.037Z,971.00
2023-04-20T06:13:30.068Z,980.00
2023-04-20T06:14:30.110Z,981.00
2023-04-20T06:15:30.140Z,981.00
2023-04-20T06:16:30.232Z,988.00
2023-04-20T06:17:30.291Z,981.00
2023-04-20T06:18:30.252Z,967.00
2023-04-20T06:19:30.292Z,983.00
2023-04-20T06:20:30.347Z,981.00
2023-04-20T06:21:30.419Z,985.00
2023-04-20T06:22:30.457Z,971.00
2023-04-20T06:23:30.512Z,970.00
2023-04-20T06:24:30.512Z,965.00
2023-04-20T06:25:30.611Z,967.00
2023-04-20T06:26:30.657Z,968.00
2023-04-20T06:27:30.706Z,964.00
2023-04-20T06:28:30.704Z,960.00
2023-04-20T06:29:30.756Z,972.00
2023-04-20T06:30:30.817Z,957.00
2023-04-20T06:31:30.893Z,956.00
2023-04-20T06:32:30.939Z,952.00
2023-04-20T06:33:30.974Z,960.00
2023-04-20T06:34:31.037Z,963.00
2023-04-20T06:35:31.106Z,957.00
2023-04-20T06:36:31.140Z,959.00
2023-04-20T06:37:31.198Z,952.00
2023-04-20T06:38:31.226Z,943.00
2023-04-20T06:39:31.286Z,953.00
2023-04-20T06:40:31.307Z,954.00
2023-04-20T06:41:31.368Z,961.00
2023-04-20T06:42:31.423Z,947.00
2023-04-20T06:43:31.489Z,942.00
2023-04-20T06:44:31.550Z,949.00
2023-04-20T06:45:33.584Z,944.00
2023-04-20T06:46:31.773Z,940.00
2023-04-20T06:47:31.801Z,943.00
2023-04-20T06:48:32.983Z,949.00
2023-04-20T06:49:31.887Z,942.00
2023-04-20T06:50:31.924Z,935.00
2023-04-20T06:51:32.029Z,950.00
2023-04-20T06:52:32.093Z,937.00
2023-04-20T06:53:32.132Z,949.00
2023-04-20T06:54:32.175Z,926.00
2023-04-20T06:55:32.236Z,948.00
2023-04-20T06:56:33.593Z,940.00
2023-04-20T06:57:32.478Z,943.00
2023-04-20T06:58:32.642Z,943.00
2023-04-20T06:59:32.627Z,937.00
2023-04-20T07:00:32.703Z,935.00
2023-04-20T07:01:32.850Z,942.00
2023-04-20T07:02:32.856Z,930.00
2023-04-20T07:03:33.034Z,924.00
2023-04-20T07:04:33.006Z,936.00
2023-04-20T07:05:32.973Z,926.00
2023-04-20T07:06:33.080Z,934.00
2023-04-20T07:07:33.963Z,925.00
2023-04-20T07:08:33.375Z,922.00
2023-04-20T07:09:33.245Z,934.00
2023-04-20T07:10:33.332Z,930.00
2023-04-20T07:11:33.365Z,924.00
2023-04-20T07:12:33.456Z,915.00
2023-04-20T07:13:34.135Z,923.00
2023-04-20T07:14:33.565Z,934.00
2023-04-20T07:15:33.649Z,932.00
2023-04-20T07:16:33.799Z,929.00
2023-04-20T07:17:33.847Z,927.00
2023-04-20T07:18:35.592Z,928.00
2023-04-20T07:19:33.759Z,928.00
2023-04-20T07:20:33.768Z,927.00
2023-04-20T07:21:33.737Z,928.00
2023-04-20T07:22:33.735Z,930.00
2023-04-20T07:23:33.723Z,932.00
2023-04-20T07:24:33.913Z,918.00
2023-04-20T07:25:33.740Z,926.00
2023-04-20T07:26:33.785Z,925.00
2023-04-20T07:27:33.811Z,919.00
2023-04-20T07:28:33.922Z,903.00
2023-04-20T07:29:34.199Z,925.00
2023-04-20T07:30:33.982Z,916.00
2023-04-20T07:31:35.440Z,912.00
2023-04-20T07:32:34.156Z,921.00
2023-04-20T07:33:34.204Z,909.00
2023-04-20T07:34:34.252Z,912.00
2023-04-20T07:35:34.319Z,915.00
2023-04-20T07:36:34.397Z,901.00
2023-04-20T07:37:34.443Z,906.00
2023-04-20T07:38:34.489Z,916.00
2023-04-20T07:39:34.545Z,915.00
2023-04-20T07:40:34.631Z,911.00
2023-04-20T07:41:34.634Z,901.00
2023-04-20T07:42:34.698Z,901.00
2023-04-20T07:43:34.749Z,907.00
2023-04-20T07:44:34.792Z,907.00
2023-04-20T07:45:34.957Z,902.00
2023-04-20T07:46:35.039Z,896.00
2023-04-20T07:47:34.971Z,927.00
2023-04-20T07:48:35.009Z,933.00
2023-04-20T07:49:35.071Z,953.00
2023-04-20T07:50:35.147Z,1033.00
2023-04-20T07:51:35.170Z,1073.00
2023-04-20T07:52:35.223Z,1096.00
2023-04-20T07:53:35.226Z,1079.00
2023-04-20T07:54:35.264Z,1139.00
2023-04-20T07:56:09.090Z,500.00
2023-04-20T07:57:09.094Z,500.00
2023-04-20T07:58:09.095Z,500.00
2023-04-20T07:59:09.052Z,500.00
2023-04-20T08:00:09.068Z,500.00
2023-04-20T08:01:09.073Z,503.00
2023-04-20T08:02:09.235Z,529.00
2023-04-20T08:03:09.258Z,545.00
2023-04-20T08:04:09.190Z,509.00
2023-04-20T08:05:09.208Z,515.00
2023-04-20T08:06:09.021Z,525.00
2023-04-20T08:07:09.012Z,521.00
2023-04-20T08:08:09.026Z,522.00
2023-04-20T08:09:09.675Z,530.00
2023-04-20T08:10:09.038Z,534.00
2023-04-20T08:11:09.006Z,521.00
2023-04-20T08:12:08.997Z,519.00
2023-04-20T08:13:09.071Z,524.00
2023-04-20T08:14:09.319Z,524.00
2023-04-20T08:15:08.961Z,536.00
2023-04-20T08:16:08.987Z,536.00
2023-04-20T08:17:08.950Z,549.00
2023-04-20T08:18:09.019Z,556.00
2023-04-20T08:19:08.929Z,553.00
2023-04-20T08:20:08.932Z,554.00
2023-04-20T08:21:08.937Z,557.00
2023-04-20T08:22:08.904Z,558.00
2023-04-20T08:23:08.922Z,549.00
2023-04-20T08:24:08.949Z,546.00
2023-04-20T08:25:08.919Z,551.00
2023-04-20T08:26:08.872Z,543.00
2023-04-20T08:27:08.963Z,536.00
2023-04-20T08:28:12.174Z,537.00
2023-04-20T08:29:09.870Z,537.00
2023-04-20T08:30:08.889Z,539.00
2023-04-20T08:31:08.948Z,545.00
2023-04-20T08:32:08.858Z,548.00
2023-04-20T08:33:08.912Z,545.00
2023-04-20T08:34:08.888Z,549.00
2023-04-20T08:35:08.876Z,535.00
2023-04-20T08:36:08.817Z,535.00
2023-04-20T08:37:08.806Z,530.00
2023-04-20T08:38:08.793Z,513.00
2023-04-20T08:39:08.809Z,519.00
2023-04-20T08:40:08.785Z,529.00
2023-04-20T08:41:08.786Z,530.00
2023-04-20T08:42:08.799Z,527.00
2023-04-20T08:43:08.757Z,522.00
2023-04-20T08:44:08.827Z,519.00
2023-04-20T08:45:08.756Z,506.00
2023-04-20T08:46:08.830Z,533.00
2023-04-20T08:47:08.815Z,552.00
2023-04-20T08:48:08.774Z,559.00
2023-04-20T08:49:08.802Z,556.00
2023-04-20T08:50:08.773Z,576.00
2023-04-20T08:51:08.778Z,573.00
2023-04-20T08:52:08.779Z,590.00
2023-04-20T08:53:08.822Z,571.00
2023-04-20T08:54:08.835Z,575.00
2023-04-20T08:55:08.840Z,589.00
2023-04-20T08:56:08.813Z,595.00
2023-04-20T08:57:08.856Z,627.00
2023-04-20T08:58:08.859Z,636.00
2023-04-20T08:59:08.830Z,640.00
2023-04-20T09:00:09.202Z,659.00
2023-04-20T09:01:08.905Z,666.00
2023-04-20T09:02:09.023Z,694.00
2023-04-20T09:03:09.058Z,712.00
2023-04-20T09:04:09.041Z,735.00
2023-04-20T09:05:08.921Z,760.00
2023-04-20T09:06:08.889Z,758.00
2023-04-20T09:07:08.895Z,766.00
2023-04-20T09:08:08.926Z,788.00
2023-04-20T09:09:08.900Z,793.00
2023-04-20T09:10:08.910Z,792.00
2023-04-20T09:11:08.921Z,801.00
2023-04-20T09:12:08.914Z,811.00
2023-04-20T09:13:08.915Z,816.00
2023-04-20T09:14:08.989Z,823.00
2023-04-20T09:15:08.913Z,835.00
2023-04-20T09:16:08.973Z,836.00
2023-04-20T09:17:08.908Z,857.00
2023-04-20T09:18:08.970Z,881.00
2023-04-20T09:19:09.534Z,874.00
2023-04-20T09:20:08.895Z,890.00
2023-04-20T09:21:08.926Z,896.00
2023-04-20T09:22:08.959Z,909.00
2023-04-20T09:23:08.964Z,932.00
2023-04-20T09:24:09.006Z,936.00
2023-04-20T09:25:09.042Z,941.00
2023-04-20T09:26:09.093Z,967.00
2023-04-20T09:27:09.095Z,967.00
2023-04-20T09:28:09.788Z,983.00
2023-04-20T09:29:09.175Z,984.00
2023-04-20T09:30:09.237Z,998.00
2023-04-20T09:31:09.255Z,1008.00
2023-04-20T09:32:09.318Z,1006.00
2023-04-20T09:33:09.383Z,1016.00
2023-04-20T09:34:09.350Z,1041.00
2023-04-20T09:35:09.392Z,1034.00
2023-04-20T09:36:09.396Z,1045.00
2023-04-20T09:37:09.408Z,1044.00
2023-04-20T09:38:09.443Z,1061.00
2023-04-20T09:39:09.474Z,1044.00
2023-04-20T09:40:09.557Z,1049.00
2023-04-20T09:41:09.539Z,1054.00
2023-04-20T09:42:09.576Z,1079.00
2023-04-20T09:43:09.745Z,1086.00
2023-04-20T09:44:09.646Z,1085.00
2023-04-20T09:45:09.621Z,1083.00
2023-04-20T09:46:09.719Z,1088.00
2023-04-20T09:47:09.706Z,1049.00
2023-04-20T09:48:09.756Z,1025.00
2023-04-20T09:49:09.765Z,558.00
2023-04-20T09:50:22.977Z,610.00
2023-04-20T09:51:10.756Z,572.00
2023-04-20T09:52:09.755Z,453.00
2023-04-20T09:53:09.755Z,411.00
2023-04-20T09:54:09.769Z,432.00
2023-04-20T09:55:09.784Z,444.00
2023-04-20T09:56:09.744Z,511.00
2023-04-20T09:57:09.690Z,538.00
2023-04-20T09:58:09.719Z,562.00
2023-04-20T09:59:09.721Z,571.00
2023-04-20T10:00:09.762Z,585.00
2023-04-20T10:01:09.756Z,605.00
2023-04-20T10:02:09.794Z,621.00
2023-04-20T10:03:09.875Z,630.00
2023-04-20T10:04:09.897Z,651.00
2023-04-20T10:05:09.691Z,659.00
2023-04-20T10:06:09.686Z,677.00
2023-04-20T10:07:09.637Z,794.00
2023-04-20T10:08:09.668Z,846.00
2023-04-20T10:09:09.673Z,840.00
2023-04-20T10:10:09.688Z,865.00
2023-04-20T10:11:09.743Z,863.00
2023-04-20T10:12:09.835Z,880.00
2023-04-20T10:13:09.851Z,903.00
2023-04-20T10:14:09.912Z,901.00
2023-04-20T10:15:09.952Z,937.00
2023-04-20T10:16:09.979Z,953.00
2023-04-20T10:17:10.188Z,973.00
2023-04-20T10:18:10.126Z,982.00
2023-04-20T10:19:10.096Z,1009.00
2023-04-20T10:20:10.149Z,1026.00
2023-04-20T10:21:10.177Z,1116.00
2023-04-20T10:22:10.213Z,1099.00
2023-04-20T10:23:10.234Z,1107.00
2023-04-20T10:24:10.285Z,1147.00
2023-04-20T10:25:10.298Z,1158.00
2023-04-20T10:26:10.305Z,1186.00
2023-04-20T10:27:10.330Z,1226.00
2023-04-20T10:28:10.396Z,1256.00
2023-04-20T10:29:10.385Z,1265.00
2023-04-20T10:30:10.417Z,1218.00
2023-04-20T10:31:10.510Z,1271.00
2023-04-20T10:32:10.462Z,1326.00
2023-04-20T10:33:10.512Z,1359.00
2023-04-20T10:34:10.529Z,1391.00
2023-04-20T10:35:10.574Z,1419.00
2023-04-20T10:36:10.592Z,1423.00
2023-04-20T10:37:10.575Z,1453.00
2023-04-20T10:38:10.579Z,1443.00
2023-04-20T10:39:10.586Z,1469.00
2023-04-20T10:40:10.606Z,1474.00
2023-04-20T10:41:10.612Z,1382.00
2023-04-20T10:42:10.613Z,1339.00
2023-04-20T10:43:10.654Z,845.00
2023-04-20T10:44:10.683Z,512.00
2023-04-20T10:45:10.764Z,479.00
2023-04-20T10:46:10.769Z,446.00
2023-04-20T10:47:10.750Z,467.00
2023-04-20T10:48:10.843Z,468.00
2023-04-20T10:49:10.786Z,497.00
2023-04-20T10:50:10.835Z,503.00
2023-04-20T10:51:10.831Z,506.00
2023-04-20T10:52:10.883Z,478.00
2023-04-20T10:53:10.932Z,466.00
2023-04-20T10:54:10.923Z,504.00
2023-04-20T10:55:11.008Z,524.00
2023-04-20T10:56:11.049Z,533.00
2023-04-20T10:57:11.114Z,529.00
2023-04-20T10:58:11.156Z,489.00
2023-04-20T10:59:11.250Z,495.00
2023-04-20T11:00:11.221Z,507.00
2023-04-20T11:01:11.228Z,491.00
2023-04-20T11:02:11.299Z,400.00
2023-04-20T11:03:11.355Z,400.00
2023-04-20T11:04:11.338Z,400.00
2023-04-20T11:05:11.443Z,400.00
2023-04-20T11:06:11.387Z,400.00
2023-04-20T11:07:11.409Z,418.00
2023-04-20T11:08:11.618Z,416.00
2023-04-20T11:09:11.454Z,511.00
2023-04-20T11:10:11.488Z,510.00
2023-04-20T11:11:11.506Z,504.00
2023-04-20T11:12:11.512Z,480.00
2023-04-20T11:13:11.583Z,523.00
2023-04-20T11:14:11.621Z,541.00
2023-04-20T11:15:11.679Z,530.00
2023-04-20T11:16:11.670Z,557.00
2023-04-20T11:17:11.766Z,491.00
2023-04-20T11:18:11.773Z,491.00
2023-04-20T11:19:11.729Z,520.00
2023-04-20T11:20:11.765Z,558.00
2023-04-20T11:21:11.804Z,529.00
2023-04-20T11:22:11.807Z,500.00
2023-04-20T11:23:11.813Z,500.00
2023-04-20T11:24:11.891Z,522.00
2023-04-20T11:25:11.876Z,551.00
2023-04-20T11:26:11.919Z,557.00
2023-04-20T11:27:11.927Z,569.00
2023-04-20T11:28:11.998Z,607.00
2023-04-20T11:29:12.010Z,650.00
2023-04-20T11:30:12.033Z,743.00
2023-04-20T11:31:12.128Z,792.00
2023-04-20T11:32:12.260Z,864.00
2023-04-20T11:33:12.351Z,1168.00
2023-04-20T11:34:12.182Z,1098.00
2023-04-20T11:35:12.243Z,891.00
2023-04-20T11:36:12.230Z,1049.00
2023-04-20T11:37:12.255Z,1202.00
2023-04-20T11:38:12.235Z,1339.00
2023-04-20T11:39:12.267Z,1253.00
2023-04-20T11:40:12.270Z,1099.00
2023-04-20T11:41:12.296Z,1142.00
2023-04-20T11:42:12.321Z,1089.00
2023-04-20T11:43:12.369Z,939.00
2023-04-20T11:44:12.376Z,991.00
2023-04-20T11:45:12.404Z,973.00
2023-04-20T11:46:12.526Z,844.00
2023-04-20T11:47:12.491Z,1001.00
2023-04-20T11:48:12.518Z,1164.00
2023-04-20T11:49:12.510Z,1231.00
2023-04-20T11:50:12.568Z,1180.00
2023-04-20T11:51:12.553Z,1075.00
2023-04-20T11:52:12.533Z,1082.00
2023-04-20T11:53:12.561Z,1186.00
2023-04-20T11:54:12.600Z,1207.00
2023-04-20T11:55:12.665Z,1393.00
2023-04-20T11:56:12.681Z,1374.00
2023-04-20T11:57:12.707Z,1458.00
2023-04-20T11:58:12.791Z,1600.00
2023-04-20T11:59:12.840Z,1516.00
2023-04-20T12:00:12.886Z,1419.00
2023-04-20T12:01:12.942Z,1489.00
2023-04-20T12:02:13.071Z,1553.00
2023-04-20T12:03:13.314Z,1483.00
2023-04-20T12:04:13.427Z,1357.00
2023-04-20T12:05:13.335Z,1345.00
2023-04-20T12:06:13.216Z,1155.00
2023-04-20T12:07:13.220Z,1167.00
2023-04-20T12:08:13.245Z,1190.00
2023-04-20T12:09:13.354Z,1080.00
2023-04-20T12:10:13.384Z,961.00
2023-04-20T12:11:13.395Z,931.00
2023-04-20T12:12:13.417Z,774.00
2023-04-20T12:13:13.490Z,683.00
2023-04-20T12:14:13.514Z,734.00
2023-04-20T12:15:13.559Z,790.00